Time;durP1;ratioP1;P1;durP2;ratioP2;P2;SDS_P1;SDS_P2;PMS_P1;PMS_P2;Temp;Humidity;BMP_temperature;BMP_pressure;BME280_temperature;BME280_humidity;BME280_pressure;Samples;Min_cycle;Max_cycle;Signal;HPM_P1;HPM_P2
2022/11/02 00:01:24;;;;;;;0.10;0.10;;;;;;;13.39;74.59;101342.38;5090425;28;20032;-79
2022/11/02 00:03:50;;;;;;;0.10;0.10;;;;;;;13.30;74.58;101341.72;5102092;28;20111;-79
2022/11/02 00:06:16;;;;;;;0.20;0.20;;;;;;;13.24;75.02;101348.03;5095559;28;20036;-83
2022/11/02 00:08:42;;;;;;;0.65;0.30;;;;;;;13.23;75.71;101343.63;5097277;28;20029;-79
2022/11/02 00:11:08;;;;;;;0.10;0.10;;;;;;;13.29;75.12;101345.28;5082932;28;20040;-79
2022/11/02 00:13:35;;;;;;;0.30;0.30;;;;;;;13.23;74.85;101340.97;5094391;28;20032;-78
2022/11/02 00:16:04;;;;;;;0.10;0.10;;;;;;;13.32;74.64;101361.16;5090932;28;20608;-78
2022/11/02 00:18:32;;;;;;;0.10;0.10;;;;;;;13.33;74.58;101345.16;5088778;28;20028;-78
2022/11/02 00:21:00;;;;;;;0.10;0.10;;;;;;;13.37;74.21;101356.59;5089703;28;20032;-79
2022/11/02 00:23:27;;;;;;;0.03;0.03;;;;;;;13.38;74.55;101350.41;5093925;28;20438;-78
2022/11/02 00:25:54;;;;;;;0.00;0.00;;;;;;;13.45;73.80;101345.84;5090049;28;20028;-78
2022/11/02 00:28:20;;;;;;;0.00;0.00;;;;;;;13.53;73.84;101362.47;5088099;28;20040;-78
2022/11/02 00:30:47;;;;;;;0.00;0.00;;;;;;;13.58;73.75;101377.44;5092161;28;20047;-79
2022/11/02 00:33:13;;;;;;;0.00;0.00;;;;;;;13.52;73.74;101408.63;5081608;28;20039;-79
2022/11/02 00:35:40;;;;;;;0.30;0.30;;;;;;;13.22;71.03;101409.28;5081947;28;20188;-79
2022/11/02 00:38:06;;;;;;;0.05;0.05;;;;;;;12.90;69.28;101417.97;5076280;28;20055;-80
2022/11/02 00:40:33;;;;;;;0.10;0.10;;;;;;;12.78;69.69;101379.19;5081537;28;20034;-79
2022/11/02 00:42:59;;;;;;;0.00;0.00;;;;;;;12.71;70.13;101374.88;5078639;28;20457;-79
2022/11/02 00:45:25;;;;;;;0.08;0.08;;;;;;;12.61;69.36;101380.41;5080074;28;20036;-80
2022/11/02 00:47:52;;;;;;;0.10;0.10;;;;;;;12.52;70.27;101390.34;5070651;28;20025;-80
2022/11/02 00:50:18;;;;;;;0.10;0.10;;;;;;;12.40;69.71;101384.34;5075165;28;20021;-79
2022/11/02 00:52:44;;;;;;;0.05;0.05;;;;;;;12.39;69.35;101361.34;5073102;28;20036;-80
2022/11/02 00:55:11;;;;;;;0.10;0.10;;;;;;;12.39;69.54;101379.06;5070358;28;20043;-80
2022/11/02 00:57:38;;;;;;;0.10;0.10;;;;;;;12.35;69.23;101367.63;5081832;28;20028;-80
2022/11/02 01:00:08;;;;;;;0.00;0.00;;;;;;;12.36;68.85;101371.16;5073871;28;20174;-80
2022/11/02 01:02:35;;;;;;;0.10;0.10;;;;;;;12.36;69.22;101363.16;5077568;28;20029;-79
2022/11/02 01:05:02;;;;;;;0.00;0.00;;;;;;;12.21;69.05;101370.53;5076975;28;20024;-79
2022/11/02 01:07:29;;;;;;;0.10;0.10;;;;;;;12.25;69.37;101361.59;5083399;28;20021;-79
2022/11/02 01:09:55;;;;;;;0.10;0.10;;;;;;;12.29;69.79;101368.59;5079611;28;20089;-79
2022/11/02 01:12:22;;;;;;;0.10;0.10;;;;;;;12.18;70.06;101359.97;5084564;28;21243;-79
2022/11/02 01:14:49;;;;;;;0.10;0.10;;;;;;;12.27;70.04;101357.16;5078202;28;20832;-80
2022/11/02 01:17:16;;;;;;;0.85;0.85;;;;;;;12.21;70.04;101375.84;5074826;28;20036;-80
2022/11/02 01:19:42;;;;;;;0.10;0.10;;;;;;;12.21;70.35;101365.22;5078221;28;20135;-79
2022/11/02 01:22:09;;;;;;;0.00;0.00;;;;;;;12.11;70.14;101371.59;5075239;28;20086;-79
2022/11/02 01:24:35;;;;;;;0.10;0.10;;;;;;;12.17;70.06;101354.69;5084567;28;20024;-79
2022/11/02 01:27:01;;;;;;;0.10;0.10;;;;;;;12.09;69.83;101354.81;5084872;28;20100;-79
2022/11/02 01:29:27;;;;;;;0.10;0.10;;;;;;;12.12;70.29;101349.44;5070836;28;20013;-79
2022/11/02 01:31:53;;;;;;;0.10;0.10;;;;;;;12.02;70.48;101358.50;5072950;28;20030;-80
2022/11/02 01:34:21;;;;;;;0.10;0.10;;;;;;;11.94;70.52;101361.25;5076336;28;20031;-79
2022/11/02 01:36:47;;;;;;;0.10;0.10;;;;;;;11.81;70.73;101365.88;5073444;28;20033;-79
2022/11/02 01:39:14;;;;;;;0.08;0.08;;;;;;;11.84;70.86;101360.53;5075258;28;20029;-79
2022/11/02 01:41:41;;;;;;;0.10;0.10;;;;;;;11.85;70.45;101361.41;5074149;28;20028;-79
2022/11/02 01:44:32;;;;;;;0.10;0.10;;;;;;;11.93;70.04;101354.19;5084951;28;20111;-79
2022/11/02 01:47:22;;;;;;;0.13;0.13;;;;;;;11.82;70.82;101352.59;5073714;28;20442;-79
2022/11/02 01:49:54;;;;;;;0.20;0.20;;;;;;;11.91;70.05;101358.63;5071379;28;20040;-78
2022/11/02 01:52:26;;;;;;;0.10;0.10;;;;;;;11.93;70.60;101349.75;5075619;28;20032;-78
2022/11/02 01:54:59;;;;;;;0.10;0.10;;;;;;;11.94;70.54;101346.19;5074689;28;20074;-79
2022/11/02 01:57:26;;;;;;;;;;;;;;;12.04;69.88;101360.22;5076229;28;20037;-78
2022/11/02 02:02:52;;;;;;;0.10;0.10;;;;;;;12.03;70.22;101352.28;5130542;27;20503;-78
2022/11/02 02:05:21;;;;;;;0.35;0.35;;;;;;;12.00;70.44;101352.31;5115915;28;20030;-78
2022/11/02 02:07:49;;;;;;;0.08;0.08;;;;;;;11.98;70.61;101361.19;5120061;28;20024;-78
2022/11/02 02:10:16;;;;;;;0.00;0.00;;;;;;;11.97;70.90;101377.16;5113226;27;20023;-78
2022/11/02 02:12:43;;;;;;;0.32;0.32;;;;;;;12.02;70.78;101374.44;5117558;27;20023;-78
2022/11/02 02:15:11;;;;;;;0.10;0.10;;;;;;;12.14;70.90;101379.53;5122191;28;20528;-79
2022/11/02 02:18:00;;;;;;;0.10;0.10;;;;;;;12.26;70.99;101374.00;5120031;28;20035;-78
2022/11/02 02:29:22;;;;;;;0.17;0.17;;;;;;;12.66;72.10;101339.53;5108573;27;20484;-80
2022/11/02 02:32:15;;;;;;;0.10;0.10;;;;;;;12.61;72.01;101356.47;5112149;28;20028;-80
2022/11/02 02:37:40;;;;;;;0.10;0.10;;;;;;;12.85;71.90;101358.69;5101204;27;20411;-77
2022/11/02 02:42:50;;;;;;;0.10;0.10;;;;;;;12.83;71.96;101366.66;5090113;27;20207;-78
2022/11/02 02:45:34;;;;;;;0.10;0.10;;;;;;;12.87;71.84;101375.44;5066384;28;20115;-79
2022/11/02 02:48:10;;;;;;;0.10;0.10;;;;;;;12.91;71.64;101356.75;5068017;28;20171;-79
2022/11/02 02:50:48;;;;;;;0.10;0.10;;;;;;;12.95;70.98;101379.69;5070373;28;20024;-78
2022/11/02 02:53:24;;;;;;;0.10;0.10;;;;;;;12.98;70.36;101361.94;5070836;28;20021;-78
2022/11/02 02:55:51;;;;;;;0.10;0.10;;;;;;;13.02;70.23;101337.91;5072522;28;20111;-78
2022/11/02 02:58:24;;;;;;;0.13;0.13;;;;;;;13.01;69.94;101327.28;5068562;28;20920;-78
2022/11/02 03:00:52;;;;;;;0.10;0.10;;;;;;;13.03;70.35;101349.41;5063600;28;20032;-78
2022/11/02 03:03:24;;;;;;;0.10;0.10;;;;;;;12.98;70.49;101351.28;5068402;28;20032;-78
2022/11/02 03:06:16;;;;;;;0.10;0.10;;;;;;;12.97;70.91;101360.19;5068331;28;20033;-78
2022/11/02 03:08:47;;;;;;;;;;;;;;;12.97;70.87;101361.03;5068206;28;20029;-77
2022/11/02 03:11:17;;;;;;;0.10;0.10;;;;;;;12.85;72.03;101364.84;5066857;28;19908;-78
2022/11/02 03:14:10;;;;;;;18.20;0.65;;;;;;;12.85;71.58;101362.19;5067460;28;20406;-78
2022/11/02 03:16:57;;;;;;;0.10;0.10;;;;;;;12.77;71.88;101372.09;5064500;28;20048;-79
2022/11/02 03:19:43;;;;;;;0.10;0.10;;;;;;;12.78;72.55;101368.53;5069351;28;20086;-78
2022/11/02 03:22:33;;;;;;;0.10;0.10;;;;;;;12.80;72.30;101369.41;5069555;28;20017;-79
2022/11/02 03:27:47;;;;;;;0.10;0.10;;;;;;;12.81;71.69;101365.84;5086714;28;20923;-78
2022/11/02 03:30:18;;;;;;;0.08;0.08;;;;;;;12.97;71.60;101381.47;5076451;28;20031;-78
2022/11/02 03:33:00;;;;;;;0.10;0.10;;;;;;;13.01;70.95;101370.72;5076902;28;20055;-78
2022/11/02 03:35:50;;;;;;;0.10;0.10;;;;;;;13.13;70.55;101377.53;5075528;28;20402;-78
2022/11/02 03:38:24;;;;;;;0.00;0.00;;;;;;;13.02;70.46;101384.88;5072106;28;20046;-78
2022/11/02 03:40:53;;;;;;;0.10;0.10;;;;;;;13.05;70.18;101385.69;5071457;28;20393;-78
2022/11/02 03:43:20;;;;;;;0.00;0.00;;;;;;;12.97;69.68;101400.94;5070224;28;20644;-77
2022/11/02 03:45:51;;;;;;;0.10;0.10;;;;;;;13.01;69.80;101399.09;5074869;28;20036;-78
2022/11/02 03:48:21;;;;;;;0.10;0.10;;;;;;;13.07;70.03;101412.25;5076408;28;20171;-78
2022/11/02 03:50:51;;;;;;;0.05;0.05;;;;;;;13.00;69.86;101440.78;5073124;28;20032;-78
2022/11/02 03:53:25;;;;;;;0.10;0.10;;;;;;;13.15;70.08;101418.31;5075718;28;20048;-78
2022/11/02 03:55:57;;;;;;;0.32;0.32;;;;;;;13.14;70.33;101426.34;5076606;28;20029;-78
2022/11/02 03:58:23;;;;;;;0.10;0.10;;;;;;;13.15;69.51;101412.13;5074854;28;20033;-78
2022/11/02 04:00:54;;;;;;;2.35;1.38;;;;;;;13.18;69.97;101430.66;5071389;28;20645;-77
2022/11/02 04:03:23;;;;;;;0.10;0.10;;;;;;;13.06;70.22;101426.47;5075952;28;20039;-77
2022/11/02 04:05:49;;;;;;;0.10;0.10;;;;;;;13.02;70.29;101438.09;5077000;28;20105;-78
2022/11/02 04:08:21;;;;;;;0.10;0.10;;;;;;;12.98;70.42;101447.91;5077993;28;20028;-78
2022/11/02 04:16:22;;;;;;;0.55;0.55;;;;;;;12.99;70.24;101455.00;5068512;28;20025;-79
2022/11/02 04:21:34;;;;;;;0.28;0.28;;;;;;;12.84;70.43;101504.03;5085473;28;20379;-80
2022/11/02 04:26:46;;;;;;;0.00;0.00;;;;;;;12.86;70.52;101496.03;5071075;28;20116;-78
2022/11/02 04:29:15;;;;;;;0.05;0.05;;;;;;;12.92;70.58;101486.16;5070686;28;20435;-78
2022/11/02 04:31:41;;;;;;;0.50;0.47;;;;;;;12.94;70.62;101487.00;5077055;28;20040;-78
2022/11/02 04:34:07;;;;;;;0.10;0.10;;;;;;;13.08;70.10;101507.13;5077083;28;20035;-79
2022/11/02 04:36:33;;;;;;;0.73;0.73;;;;;;;13.05;70.30;101499.22;5075252;28;20024;-79
2022/11/02 04:38:59;;;;;;;0.10;0.10;;;;;;;12.97;70.98;101514.44;5054925;28;20043;-78
2022/11/02 04:41:40;;;;;;;0.10;0.10;;;;;;;13.03;71.02;101522.31;5059705;28;20033;-80
2022/11/02 04:44:07;;;;;;;0.20;0.20;;;;;;;13.04;71.04;101521.41;5062519;28;20446;-79
2022/11/02 04:46:36;;;;;;;0.45;0.45;;;;;;;12.97;72.31;101549.03;5064006;28;20020;-80
2022/11/02 04:49:03;;;;;;;0.20;0.20;;;;;;;12.90;72.33;101543.81;5062438;28;20041;-80
2022/11/02 04:51:30;;;;;;;0.10;0.10;;;;;;;12.91;72.45;101553.56;5059501;28;20047;-78
2022/11/02 04:53:57;;;;;;;0.10;0.10;;;;;;;12.89;72.81;101559.81;5065931;28;20161;-79
2022/11/02 04:56:25;;;;;;;0.10;0.10;;;;;;;12.86;72.95;101566.06;5060556;28;20027;-79
2022/11/02 04:58:54;;;;;;;0.10;0.10;;;;;;;12.71;73.42;101567.22;5064177;28;20025;-79
2022/11/02 05:01:22;;;;;;;0.10;0.10;;;;;;;12.68;73.10;101561.94;5055436;28;20061;-79
2022/11/02 05:03:49;;;;;;;0.10;0.10;;;;;;;12.61;73.39;101565.59;5065685;28;20032;-77
2022/11/02 05:06:17;;;;;;;0.10;0.10;;;;;;;12.61;72.69;101561.19;5061280;28;20100;-77
2022/11/02 05:08:43;;;;;;;0.10;0.10;;;;;;;12.58;72.81;101566.53;5057837;28;20042;-77
2022/11/02 05:11:10;;;;;;;4.05;1.02;;;;;;;12.51;73.43;101571.97;5058887;28;20546;-77
2022/11/02 05:13:38;;;;;;;0.10;0.10;;;;;;;12.56;72.97;101573.69;5056482;28;20495;-77
2022/11/02 05:16:05;;;;;;;0.10;0.10;;;;;;;12.52;72.57;101582.56;5058307;28;20024;-77
2022/11/02 05:18:42;;;;;;;0.10;0.10;;;;;;;12.56;73.14;101586.97;5058884;28;20060;-77
2022/11/02 05:21:14;;;;;;;0.10;0.10;;;;;;;12.58;73.00;101603.75;5056794;28;20017;-77
2022/11/02 05:23:41;;;;;;;0.10;0.10;;;;;;;12.53;73.58;101608.25;5058151;28;20114;-77
2022/11/02 05:26:10;;;;;;;0.17;0.17;;;;;;;12.54;72.97;101606.50;5059292;28;20099;-77
2022/11/02 05:28:36;;;;;;;0.10;0.10;;;;;;;12.48;72.90;101623.41;5057899;28;20416;-77
2022/11/02 05:31:03;;;;;;;0.10;0.10;;;;;;;12.29;72.63;101623.69;5058049;28;20033;-77
2022/11/02 05:33:30;;;;;;;0.10;0.10;;;;;;;12.50;71.53;101624.28;5061933;28;20128;-77
2022/11/02 05:36:00;;;;;;;0.10;0.10;;;;;;;12.43;70.80;101620.81;5060834;28;20027;-78
2022/11/02 05:38:27;;;;;;;0.10;0.10;;;;;;;12.50;70.17;101626.94;5057732;28;20036;-78
2022/11/02 05:40:55;;;;;;;0.10;0.10;;;;;;;12.52;69.39;101638.41;5054519;28;20033;-78
2022/11/02 05:43:21;;;;;;;0.13;0.13;;;;;;;12.62;68.45;101650.66;5058889;28;20051;-78
2022/11/02 05:45:52;;;;;;;0.10;0.10;;;;;;;12.65;67.98;101648.84;5063320;28;20028;-78
2022/11/02 05:48:19;;;;;;;0.10;0.10;;;;;;;12.56;66.97;101656.06;5059383;28;20063;-78
2022/11/02 05:50:45;;;;;;;0.10;0.10;;;;;;;12.70;67.01;101655.00;5059692;28;20059;-77
2022/11/02 05:53:11;;;;;;;0.10;0.10;;;;;;;12.73;67.23;101660.25;5060837;28;20716;-78
2022/11/02 05:55:37;;;;;;;0.10;0.10;;;;;;;12.79;67.34;101670.78;5060953;28;20525;-78
2022/11/02 05:58:05;;;;;;;1.13;1.13;;;;;;;12.66;66.59;101671.88;5066128;28;20507;-79
2022/11/02 06:00:32;;;;;;;0.10;0.10;;;;;;;12.64;66.12;101679.00;5063362;28;20033;-78
2022/11/02 06:02:58;;;;;;;0.10;0.10;;;;;;;12.68;66.34;101697.53;5062467;28;20029;-78
2022/11/02 06:05:25;;;;;;;0.10;0.10;;;;;;;12.71;65.97;101688.63;5057636;28;20581;-78
2022/11/02 06:07:51;;;;;;;0.17;0.17;;;;;;;12.75;65.78;101693.88;5056560;28;20048;-78
2022/11/02 06:10:18;;;;;;;0.10;0.10;;;;;;;12.68;65.87;101694.00;5058926;28;20371;-79
2022/11/02 06:12:44;;;;;;;0.10;0.10;;;;;;;12.60;65.71;101710.94;5061308;28;20027;-78
2022/11/02 06:15:10;;;;;;;0.35;0.35;;;;;;;12.56;64.92;101703.94;5055988;28;20029;-78
2022/11/02 06:17:40;;;;;;;0.00;0.00;;;;;;;12.64;65.22;101710.91;5058562;28;20052;-78
2022/11/02 06:20:07;;;;;;;0.10;0.10;;;;;;;12.65;65.38;101710.88;5057548;28;20662;-79
2022/11/02 06:22:45;;;;;;;0.00;0.00;;;;;;;12.67;64.80;101724.16;5062583;28;20046;-79
2022/11/02 06:25:14;;;;;;;0.10;0.10;;;;;;;12.65;64.47;101725.94;5058269;28;20544;-79
2022/11/02 06:27:40;;;;;;;0.00;0.00;;;;;;;12.67;64.92;101740.09;5051327;28;20037;-79
2022/11/02 06:30:08;;;;;;;0.10;0.10;;;;;;;12.59;63.69;101740.22;5060168;28;20044;-79
2022/11/02 06:32:34;;;;;;;0.10;0.10;;;;;;;12.64;63.88;101751.66;5059177;28;20029;-79
2022/11/02 06:35:00;;;;;;;0.10;0.10;;;;;;;12.66;62.66;101747.22;5053676;28;20413;-79
2022/11/02 06:37:26;;;;;;;0.10;0.10;;;;;;;12.60;63.17;101755.28;5058322;28;20041;-79
2022/11/02 06:39:52;;;;;;;0.10;0.10;;;;;;;12.68;62.79;101763.13;5061728;28;20107;-79
2022/11/02 06:42:18;;;;;;;0.10;0.10;;;;;;;12.68;62.86;101769.31;5054273;28;20025;-80
2022/11/02 06:44:47;;;;;;;0.05;0.05;;;;;;;12.65;62.36;101776.47;5063524;28;20065;-80
2022/11/02 06:47:15;;;;;;;0.00;0.00;;;;;;;12.62;61.94;101791.56;5058565;28;20454;-80
2022/11/02 06:49:42;;;;;;;0.10;0.10;;;;;;;12.70;62.67;101793.25;5051437;28;20037;-80
2022/11/02 06:52:08;;;;;;;0.10;0.10;;;;;;;12.72;61.84;101791.44;5060940;28;20028;-79
2022/11/02 06:54:34;;;;;;;0.10;0.10;;;;;;;12.68;62.92;101808.34;5055202;28;20060;-80
2022/11/02 06:57:00;;;;;;;0.00;0.00;;;;;;;12.62;62.35;101818.16;5058109;28;20036;-80
2022/11/02 06:59:26;;;;;;;0.08;0.08;;;;;;;12.66;62.24;101821.66;5055594;28;20033;-78
2022/11/02 07:01:52;;;;;;;0.03;0.03;;;;;;;12.66;61.99;101826.97;5059949;28;20029;-79
2022/11/02 07:04:19;;;;;;;0.10;0.10;;;;;;;12.57;61.63;101851.91;5060114;28;20519;-80
2022/11/02 07:06:45;;;;;;;0.10;0.10;;;;;;;12.56;62.34;101839.50;5056175;28;20021;-81
2022/11/02 07:09:12;;;;;;;0.10;0.10;;;;;;;12.65;61.62;101846.50;5056794;28;20044;-81
2022/11/02 07:11:38;;;;;;;4.95;2.83;;;;;;;12.69;62.02;101852.66;5056826;28;20487;-81
2022/11/02 07:14:04;;;;;;;0.00;0.00;;;;;;;12.71;62.15;101848.16;5053469;28;20375;-82
2022/11/02 07:16:30;;;;;;;0.00;0.00;;;;;;;12.70;61.51;101852.63;5055434;28;20104;-81
2022/11/02 07:18:56;;;;;;;0.10;0.10;;;;;;;12.73;62.01;101865.88;5050640;28;20380;-81
2022/11/02 07:21:22;;;;;;;0.10;0.10;;;;;;;12.68;62.30;101872.16;5053233;28;20037;-81
2022/11/02 07:23:49;;;;;;;0.10;0.10;;;;;;;12.68;61.64;101878.34;5052679;28;20049;-82
2022/11/02 07:26:15;;;;;;;1.25;0.80;;;;;;;12.67;61.69;101873.91;5050018;28;20067;-81
2022/11/02 07:28:41;;;;;;;0.00;0.00;;;;;;;12.78;62.03;101880.00;5053550;28;20032;-81
2022/11/02 07:31:07;;;;;;;2.35;1.45;;;;;;;12.74;62.04;101882.72;5056989;28;20170;-80
2022/11/02 07:33:33;;;;;;;0.38;0.38;;;;;;;12.74;62.71;101886.25;5057525;28;20033;-81
2022/11/02 07:36:03;;;;;;;0.10;0.10;;;;;;;12.69;62.24;101889.88;5053641;28;20025;-80
2022/11/02 07:38:29;;;;;;;0.10;0.10;;;;;;;12.72;62.54;101889.81;5052904;28;20029;-79
2022/11/02 07:40:55;;;;;;;0.00;0.00;;;;;;;12.74;62.67;101896.00;5054320;28;20076;-79
2022/11/02 07:43:21;;;;;;;0.10;0.10;;;;;;;12.77;62.33;101906.59;5053149;28;20502;-80
2022/11/02 07:45:47;;;;;;;0.03;0.03;;;;;;;12.81;62.86;101908.34;5058293;28;20037;-79
2022/11/02 07:48:13;;;;;;;0.15;0.15;;;;;;;12.86;63.15;101911.81;5051737;28;20025;-80
2022/11/02 07:50:39;;;;;;;0.10;0.10;;;;;;;12.91;63.21;101920.63;5051136;28;20386;-80
2022/11/02 07:53:06;;;;;;;4.55;2.00;;;;;;;13.00;63.25;101914.31;5058223;28;20117;-80
2022/11/02 07:55:32;;;;;;;0.10;0.10;;;;;;;13.02;62.50;101919.59;5056565;28;20051;-80
2022/11/02 07:58:02;;;;;;;0.10;0.10;;;;;;;13.10;62.93;101921.25;5056184;28;20494;-80
2022/11/02 08:00:32;;;;;;;0.10;0.10;;;;;;;13.19;62.97;101922.03;5058001;28;20037;-80
2022/11/02 08:03:00;;;;;;;0.08;0.08;;;;;;;13.23;62.41;101918.44;5054130;28;20055;-79
2022/11/02 08:05:34;;;;;;;0.10;0.10;;;;;;;13.26;61.85;101929.91;5052114;28;20198;-78
2022/11/02 08:08:06;;;;;;;0.10;0.10;;;;;;;13.23;61.33;101931.72;5051502;28;20051;-79
2022/11/02 08:10:34;;;;;;;0.03;0.03;;;;;;;13.22;61.20;101940.63;5052258;28;20100;-79
2022/11/02 08:13:01;;;;;;;0.10;0.10;;;;;;;13.38;60.42;101951.97;5053148;28;20052;-79
2022/11/02 08:15:28;;;;;;;0.10;0.10;;;;;;;13.40;60.51;101945.72;5059095;28;20398;-79
2022/11/02 08:20:40;;;;;;;0.10;0.10;;;;;;;13.55;59.56;101939.28;5071983;27;1842246;-79
2022/11/02 08:23:09;;;;;;;0.10;0.10;;;;;;;13.54;58.90;101953.50;5128375;27;20488;-79
2022/11/02 08:25:38;;;;;;;0.00;0.00;;;;;;;13.59;59.49;101951.69;5119072;27;20039;-79
2022/11/02 08:28:06;;;;;;;0.10;0.10;;;;;;;13.66;58.92;101948.94;5127168;28;20053;-79
2022/11/02 08:30:35;;;;;;;0.10;0.10;;;;;;;13.65;58.89;101957.81;5120422;28;20078;-79
2022/11/02 08:33:05;;;;;;;0.10;0.10;;;;;;;13.66;58.71;101949.78;5127055;27;22564;-79
2022/11/02 08:35:36;;;;;;;0.10;0.10;;;;;;;13.79;59.45;101954.94;5116167;28;20031;-79
2022/11/02 08:38:03;;;;;;;0.10;0.10;;;;;;;13.79;59.27;101955.81;5123565;27;20053;-80
2022/11/02 08:40:30;;;;;;;0.10;0.10;;;;;;;13.74;58.19;101962.97;5125748;27;20027;-79
2022/11/02 08:43:00;;;;;;;0.20;0.20;;;;;;;13.78;58.09;101967.34;5126930;28;20027;-79
2022/11/02 08:45:28;;;;;;;0.10;0.10;;;;;;;13.90;58.00;101968.97;5122965;27;20030;-79
2022/11/02 08:47:54;;;;;;;0.20;0.20;;;;;;;13.95;57.92;101971.56;5122986;28;20106;-80
2022/11/02 08:50:21;;;;;;;0.10;0.10;;;;;;;13.96;57.05;101965.34;5125810;27;20562;-80
2022/11/02 08:52:48;;;;;;;0.10;0.10;;;;;;;13.96;57.00;101976.84;5115301;28;20126;-80
2022/11/02 08:55:14;;;;;;;0.10;0.10;;;;;;;14.06;56.95;101981.13;5126057;27;20106;-79
2022/11/02 08:57:49;;;;;;;0.55;0.55;;;;;;;14.13;56.69;101984.59;5124728;28;20043;-79
2022/11/02 09:00:18;;;;;;;0.03;0.03;;;;;;;14.12;55.63;101992.59;5126193;28;20404;-80
2022/11/02 09:02:56;;;;;;;0.40;0.40;;;;;;;14.11;55.52;101986.38;5125701;28;20070;-78
2022/11/02 09:05:24;;;;;;;0.10;0.10;;;;;;;14.22;56.04;101989.75;5127704;27;20038;-78
2022/11/02 09:08:08;;;;;;;0.10;0.10;;;;;;;14.23;55.13;101996.84;5125883;27;20100;-79
2022/11/02 09:10:36;;;;;;;0.10;0.10;;;;;;;14.26;55.08;101990.56;5119321;28;20031;-79
2022/11/02 09:13:05;;;;;;;0.10;0.10;;;;;;;14.15;54.75;102004.06;5118757;27;20035;-79
2022/11/02 09:15:34;;;;;;;0.03;0.03;;;;;;;14.19;54.56;102005.81;5110321;28;20038;-78
2022/11/02 09:18:01;;;;;;;0.20;0.20;;;;;;;14.15;53.89;102001.41;5119821;28;20158;-79
2022/11/02 09:20:27;;;;;;;0.00;0.00;;;;;;;14.23;55.13;101996.84;5121113;28;20023;-79
2022/11/02 09:23:00;;;;;;;0.00;0.00;;;;;;;14.29;54.89;102001.19;5126674;28;20027;-80
2022/11/02 09:25:27;;;;;;;0.10;0.10;;;;;;;14.32;55.04;102005.59;5127324;28;20038;-79
2022/11/02 09:27:55;;;;;;;0.20;0.20;;;;;;;14.42;55.06;102014.28;5110262;28;20042;-80
2022/11/02 09:30:23;;;;;;;0.05;0.05;;;;;;;14.50;55.24;102013.25;5105040;28;20024;-79
2022/11/02 09:33:01;;;;;;;0.10;0.10;;;;;;;14.77;56.41;102010.16;5110859;28;20400;-79
2022/11/02 09:35:33;;;;;;;0.10;0.10;;;;;;;14.81;57.59;102019.88;5111447;28;20039;-79
2022/11/02 09:38:05;;;;;;;0.35;0.35;;;;;;;14.82;58.79;102022.50;5112405;28;20028;-78
2022/11/02 09:40:40;;;;;;;0.65;0.65;;;;;;;14.87;59.09;102028.63;5108621;28;20028;-78
2022/11/02 09:43:33;;;;;;;0.05;0.05;;;;;;;14.98;58.94;102015.09;5107664;28;20048;-76
2022/11/02 09:46:03;;;;;;;;;;;;;;;14.96;59.57;102016.88;5111578;28;20023;-77
2022/11/02 09:48:37;;;;;;;0.10;0.10;;;;;;;14.94;59.71;102021.41;5112552;28;19923;-76
2022/11/02 09:51:17;;;;;;;0.10;0.10;;;;;;;15.03;59.76;102015.88;5096580;28;20110;-77
2022/11/02 09:54:24;;;;;;;0.10;0.10;;;;;;;15.15;59.14;102020.09;5112964;28;20488;-78
2022/11/02 09:56:55;;;;;;;0.10;0.10;;;;;;;15.11;59.46;102028.19;5109911;28;20504;-78
2022/11/02 09:59:24;;;;;;;0.00;0.00;;;;;;;15.05;59.32;102034.50;5105594;28;20035;-79
2022/11/02 10:04:42;;;;;;;0.00;0.00;;;;;;;14.94;59.84;102037.41;5085603;27;20650;-79
2022/11/02 10:07:33;;;;;;;0.10;0.10;;;;;;;14.96;59.72;102040.03;5075482;28;20035;-82
2022/11/02 10:10:25;;;;;;;0.03;0.03;;;;;;;14.77;59.58;102045.72;5078566;28;20024;-81
2022/11/02 10:13:25;;;;;;;0.10;0.10;;;;;;;14.85;59.97;102042.91;5061618;28;20567;-82
2022/11/02 10:18:30;;;;;;;0.45;0.45;;;;;;;14.83;59.39;102040.28;5089347;27;20409;-81
2022/11/02 10:21:01;;;;;;;0.40;0.40;;;;;;;15.03;58.59;102036.34;5081401;28;20033;-82
2022/11/02 10:26:05;;;;;;;0.13;0.13;;;;;;;15.34;58.72;102046.41;5097695;27;20422;-82
2022/11/02 10:28:37;;;;;;;0.10;0.10;;;;;;;15.56;59.02;102059.31;5078628;28;20052;-83
2022/11/02 10:31:14;;;;;;;0.30;0.30;;;;;;;15.64;58.54;102054.69;5069765;28;20033;-82
2022/11/02 10:33:40;;;;;;;0.10;0.10;;;;;;;15.73;57.76;102070.50;5064443;28;20069;-83
2022/11/02 10:36:27;;;;;;;0.20;0.20;;;;;;;15.75;57.68;102071.34;5062664;28;20115;-82
2022/11/02 10:39:14;;;;;;;0.00;0.00;;;;;;;15.87;57.25;102072.91;5070648;28;20035;-83
2022/11/02 10:42:15;;;;;;;0.10;0.10;;;;;;;15.94;57.65;102069.19;5060603;28;20203;-81
2022/11/02 10:47:22;;;;;;;0.10;0.10;;;;;;;15.90;57.95;102072.84;5095951;27;20391;-78
2022/11/02 10:50:28;;;;;;;0.10;0.10;;;;;;;15.92;57.52;102072.81;5038885;28;20553;-80
2022/11/02 10:53:04;;;;;;;0.32;0.32;;;;;;;16.02;58.09;102063.66;5045025;28;20057;-78
2022/11/02 10:55:43;;;;;;;1.98;1.30;;;;;;;16.06;57.67;102065.31;5052300;28;20025;-79
2022/11/02 10:58:16;;;;;;;0.10;0.10;;;;;;;16.09;58.04;102057.25;5048136;28;20510;-78
2022/11/02 11:01:06;;;;;;;0.10;0.10;;;;;;;16.11;58.20;102060.78;5034790;28;20041;-79
2022/11/02 11:03:31;;;;;;;0.03;0.03;;;;;;;16.12;57.92;102062.50;5035049;28;20064;-79
2022/11/02 11:08:40;;;;;;;0.55;0.55;;;;;;;16.14;56.61;102066.03;5047238;27;20392;-82
2022/11/02 11:11:18;;;;;;;0.10;0.10;;;;;;;16.18;55.93;102073.06;5036765;28;20513;-81
2022/11/02 11:14:03;;;;;;;1.90;1.80;;;;;;;16.20;55.83;102075.72;5038961;28;20033;-83
2022/11/02 11:22:38;;;;;;;0.10;0.10;;;;;;;16.62;55.40;102055.94;5038552;28;20410;-81
2022/11/02 11:27:53;;;;;;;0.10;0.10;;;;;;;16.76;55.29;102043.09;5095232;27;20412;-80
2022/11/02 11:30:27;;;;;;;0.10;0.10;;;;;;;16.80;54.39;102043.88;5099064;28;20055;-81
2022/11/02 11:32:56;;;;;;;0.20;0.20;;;;;;;16.81;53.43;102041.16;5095181;28;20021;-80
2022/11/02 11:35:27;;;;;;;0.10;0.10;;;;;;;16.81;54.12;102057.22;5085714;28;20115;-80
2022/11/02 11:37:58;;;;;;;0.20;0.20;;;;;;;16.81;53.80;102059.03;5091891;28;20414;-80
2022/11/02 11:40:26;;;;;;;0.10;0.10;;;;;;;16.79;53.32;102058.19;5094208;28;20016;-82
2022/11/02 11:42:54;;;;;;;0.10;0.10;;;;;;;16.78;53.53;102065.31;5093158;28;20055;-81
2022/11/02 11:45:27;;;;;;;0.10;0.10;;;;;;;16.75;53.92;102065.41;5090776;28;20159;-80
2022/11/02 11:48:08;;;;;;;0.10;0.10;;;;;;;16.71;53.68;102066.41;5088215;28;20506;-80
2022/11/02 11:50:48;;;;;;;0.10;0.10;;;;;;;16.67;53.83;102056.69;5087963;28;20026;-81
2022/11/02 11:55:57;;;;;;;0.10;0.10;;;;;;;16.79;52.72;102056.38;5154290;27;20123;-79
2022/11/02 12:17:30;;;;;;;0.10;0.10;;;;;;;17.06;52.13;102021.78;5068271;28;20379;-83
2022/11/02 12:20:25;;;;;;;0.20;0.20;;;;;;;17.11;52.53;102030.56;5037977;28;20030;-82
2022/11/02 12:25:55;;;;;;;0.10;0.10;;;;;;;17.08;53.27;102027.94;5096326;27;1180387;-81
2022/11/02 12:28:44;;;;;;;0.10;0.10;;;;;;;17.07;54.34;102025.31;5120601;28;20508;-82
2022/11/02 12:39:43;;;;;;;0.10;0.10;;;;;;;17.02;53.28;102038.81;5111212;27;20928;-80
2022/11/02 12:42:22;;;;;;;;;;;;;;;17.22;53.18;102027.56;5101988;28;20553;-80
2022/11/02 12:51:01;;;;;;;0.22;0.22;;;;;;;17.21;52.36;102022.25;5112860;27;20399;-81
2022/11/02 12:53:42;;;;;;;0.10;0.10;;;;;;;17.14;51.11;102018.88;5096504;28;20086;-81
2022/11/02 12:56:15;;;;;;;0.10;0.10;;;;;;;17.18;50.81;102008.94;5095641;28;20560;-82
2022/11/02 12:58:41;;;;;;;0.10;0.10;;;;;;;17.18;50.66;102011.63;5094789;28;20024;-82
2022/11/02 13:01:20;;;;;;;0.05;0.05;;;;;;;17.14;50.45;101990.28;5099214;28;20024;-82
2022/11/02 13:03:53;;;;;;;4.30;1.75;;;;;;;17.10;51.38;101995.78;5097107;28;20027;-81
2022/11/02 13:06:29;;;;;;;0.10;0.10;;;;;;;17.07;50.20;101986.06;5097750;28;20203;-82
2022/11/02 13:09:05;;;;;;;0.10;0.10;;;;;;;17.09;50.88;101994.03;5099754;28;20020;-82
2022/11/02 13:11:40;;;;;;;0.10;0.10;;;;;;;17.21;51.49;101979.38;5087888;28;20028;-82
2022/11/02 13:14:13;;;;;;;1.75;1.55;;;;;;;17.14;50.49;101979.56;5082788;28;20020;-82
2022/11/02 13:17:02;;;;;;;2.38;2.15;;;;;;;17.17;51.23;101983.09;5090208;28;20024;-82
2022/11/02 13:19:38;;;;;;;0.65;0.65;;;;;;;17.14;51.64;101970.66;5085877;28;20106;-83